sensor_id;sensor_type;location;lat;lon;timestamp;P1;durP1;ratioP1;P2;durP2;ratioP2
53034;SDS011;38923;53.236;6.506;2022-11-15T00:00:28;33.00;;;20.55;;
53034;SDS011;38923;53.236;6.506;2022-11-15T00:02:58;31.20;;;20.00;;
53034;SDS011;38923;53.236;6.506;2022-11-15T00:05:39;32.40;;;19.73;;
53034;SDS011;38923;53.236;6.506;2022-11-15T00:08:13;30.80;;;19.67;;
53034;SDS011;38923;53.236;6.506;2022-11-15T00:11:02;32.50;;;20.02;;
53034;SDS011;38923;53.236;6.506;2022-11-15T00:13:46;34.47;;;20.27;;
53034;SDS011;38923;53.236;6.506;2022-11-15T00:16:30;35.20;;;19.80;;
53034;SDS011;38923;53.236;6.506;2022-11-15T00:19:02;33.22;;;20.20;;
53034;SDS011;38923;53.236;6.506;2022-11-15T00:21:51;31.35;;;20.90;;
53034;SDS011;38923;53.236;6.506;2022-11-15T00:24:37;34.47;;;19.67;;
53034;SDS011;38923;53.236;6.506;2022-11-15T00:27:10;31.20;;;19.92;;
53034;SDS011;38923;53.236;6.506;2022-11-15T00:29:46;36.92;;;20.50;;
53034;SDS011;38923;53.236;6.506;2022-11-15T00:36:10;33.88;;;19.17;;
53034;SDS011;38923;53.236;6.506;2022-11-15T00:38:44;35.00;;;20.00;;
53034;SDS011;38923;53.236;6.506;2022-11-15T00:41:30;36.67;;;20.35;;
53034;SDS011;38923;53.236;6.506;2022-11-15T00:44:07;31.63;;;20.17;;
53034;SDS011;38923;53.236;6.506;2022-11-15T00:46:42;33.40;;;20.90;;
53034;SDS011;38923;53.236;6.506;2022-11-15T00:49:18;31.67;;;19.23;;
53034;SDS011;38923;53.236;6.506;2022-11-15T00:51:51;34.03;;;20.73;;
53034;SDS011;38923;53.236;6.506;2022-11-15T00:54:27;36.60;;;20.90;;
53034;SDS011;38923;53.236;6.506;2022-11-15T00:57:18;29.05;;;19.70;;
53034;SDS011;38923;53.236;6.506;2022-11-15T00:59:50;35.80;;;19.42;;
53034;SDS011;38923;53.236;6.506;2022-11-15T01:02:18;32.83;;;19.77;;
53034;SDS011;38923;53.236;6.506;2022-11-15T01:05:05;30.35;;;19.75;;
53034;SDS011;38923;53.236;6.506;2022-11-15T01:07:34;32.10;;;18.45;;
53034;SDS011;38923;53.236;6.506;2022-11-15T01:10:00;34.38;;;19.90;;
53034;SDS011;38923;53.236;6.506;2022-11-15T01:12:31;32.95;;;20.35;;
53034;SDS011;38923;53.236;6.506;2022-11-15T01:15:18;28.58;;;19.65;;
53034;SDS011;38923;53.236;6.506;2022-11-15T01:18:01;31.15;;;19.45;;
53034;SDS011;38923;53.236;6.506;2022-11-15T01:20:27;29.88;;;19.90;;
53034;SDS011;38923;53.236;6.506;2022-11-15T01:23:11;30.83;;;19.20;;
53034;SDS011;38923;53.236;6.506;2022-11-15T01:25:52;31.20;;;20.27;;
53034;SDS011;38923;53.236;6.506;2022-11-15T01:29:12;31.88;;;19.60;;
53034;SDS011;38923;53.236;6.506;2022-11-15T01:31:41;31.88;;;19.67;;
53034;SDS011;38923;53.236;6.506;2022-11-15T01:34:32;30.27;;;18.23;;
53034;SDS011;38923;53.236;6.506;2022-11-15T01:37:15;32.60;;;18.70;;
53034;SDS011;38923;53.236;6.506;2022-11-15T01:39:50;27.30;;;18.17;;
53034;SDS011;38923;53.236;6.506;2022-11-15T01:42:26;28.80;;;17.48;;
53034;SDS011;38923;53.236;6.506;2022-11-15T01:44:54;30.15;;;19.45;;
53034;SDS011;38923;53.236;6.506;2022-11-15T01:47:30;30.83;;;19.13;;
53034;SDS011;38923;53.236;6.506;2022-11-15T01:50:10;32.75;;;20.83;;
53034;SDS011;38923;53.236;6.506;2022-11-15T01:52:46;33.90;;;20.95;;
53034;SDS011;38923;53.236;6.506;2022-11-15T01:55:18;34.35;;;21.38;;
53034;SDS011;38923;53.236;6.506;2022-11-15T01:57:51;39.50;;;21.85;;
53034;SDS011;38923;53.236;6.506;2022-11-15T02:00:32;36.33;;;21.88;;
53034;SDS011;38923;53.236;6.506;2022-11-15T02:03:13;34.22;;;21.70;;
53034;SDS011;38923;53.236;6.506;2022-11-15T02:05:51;37.75;;;21.83;;
53034;SDS011;38923;53.236;6.506;2022-11-15T02:08:44;33.28;;;21.10;;
53034;SDS011;38923;53.236;6.506;2022-11-15T02:11:16;32.90;;;20.75;;
53034;SDS011;38923;53.236;6.506;2022-11-15T02:14:18;34.30;;;21.83;;
53034;SDS011;38923;53.236;6.506;2022-11-15T02:23:13;33.03;;;20.63;;
53034;SDS011;38923;53.236;6.506;2022-11-15T02:28:56;32.50;;;18.97;;
53034;SDS011;38923;53.236;6.506;2022-11-15T02:35:16;30.73;;;18.08;;
53034;SDS011;38923;53.236;6.506;2022-11-15T02:37:46;33.30;;;20.15;;
53034;SDS011;38923;53.236;6.506;2022-11-15T02:40:52;28.73;;;19.40;;
53034;SDS011;38923;53.236;6.506;2022-11-15T02:43:33;35.97;;;19.60;;
53034;SDS011;38923;53.236;6.506;2022-11-15T02:49:50;32.13;;;18.50;;
53034;SDS011;38923;53.236;6.506;2022-11-15T02:52:21;38.63;;;21.00;;
53034;SDS011;38923;53.236;6.506;2022-11-15T02:58:06;31.85;;;18.70;;
53034;SDS011;38923;53.236;6.506;2022-11-15T03:19:12;38.92;;;20.52;;
53034;SDS011;38923;53.236;6.506;2022-11-15T03:21:41;40.97;;;20.42;;
53034;SDS011;38923;53.236;6.506;2022-11-15T03:24:28;41.05;;;21.85;;
53034;SDS011;38923;53.236;6.506;2022-11-15T03:26:55;37.92;;;21.30;;
53034;SDS011;38923;53.236;6.506;2022-11-15T03:29:29;39.23;;;21.07;;
53034;SDS011;38923;53.236;6.506;2022-11-15T03:32:11;39.65;;;21.17;;
53034;SDS011;38923;53.236;6.506;2022-11-15T03:40:39;42.78;;;22.08;;
53034;SDS011;38923;53.236;6.506;2022-11-15T03:46:17;46.60;;;22.13;;
53034;SDS011;38923;53.236;6.506;2022-11-15T03:49:06;40.72;;;21.52;;
53034;SDS011;38923;53.236;6.506;2022-11-15T03:51:42;47.03;;;21.33;;
53034;SDS011;38923;53.236;6.506;2022-11-15T03:54:25;44.97;;;21.65;;
53034;SDS011;38923;53.236;6.506;2022-11-15T03:59:42;50.30;;;22.30;;
53034;SDS011;38923;53.236;6.506;2022-11-15T04:02:37;48.22;;;22.02;;
53034;SDS011;38923;53.236;6.506;2022-11-15T04:15:38;47.63;;;21.88;;
53034;SDS011;38923;53.236;6.506;2022-11-15T04:18:04;45.13;;;22.25;;
53034;SDS011;38923;53.236;6.506;2022-11-15T04:20:49;46.25;;;23.42;;
53034;SDS011;38923;53.236;6.506;2022-11-15T04:23:45;46.75;;;22.60;;
53034;SDS011;38923;53.236;6.506;2022-11-15T04:26:34;47.45;;;23.00;;
53034;SDS011;38923;53.236;6.506;2022-11-15T04:29:00;50.75;;;22.92;;
53034;SDS011;38923;53.236;6.506;2022-11-15T04:31:47;48.42;;;22.30;;
53034;SDS011;38923;53.236;6.506;2022-11-15T04:34:13;51.47;;;22.98;;
53034;SDS011;38923;53.236;6.506;2022-11-15T04:36:49;52.15;;;22.88;;
53034;SDS011;38923;53.236;6.506;2022-11-15T04:39:36;50.53;;;21.85;;
53034;SDS011;38923;53.236;6.506;2022-11-15T04:42:18;46.75;;;22.38;;
53034;SDS011;38923;53.236;6.506;2022-11-15T04:44:49;48.08;;;22.67;;
53034;SDS011;38923;53.236;6.506;2022-11-15T04:47:20;52.88;;;23.92;;
53034;SDS011;38923;53.236;6.506;2022-11-15T04:50:02;47.78;;;22.52;;
53034;SDS011;38923;53.236;6.506;2022-11-15T04:52:55;51.42;;;23.23;;
53034;SDS011;38923;53.236;6.506;2022-11-15T04:55:29;47.88;;;23.02;;
53034;SDS011;38923;53.236;6.506;2022-11-15T04:58:30;46.13;;;21.80;;
53034;SDS011;38923;53.236;6.506;2022-11-15T05:01:14;52.80;;;23.92;;
53034;SDS011;38923;53.236;6.506;2022-11-15T05:03:46;54.10;;;23.90;;
53034;SDS011;38923;53.236;6.506;2022-11-15T05:06:39;56.85;;;24.70;;
53034;SDS011;38923;53.236;6.506;2022-11-15T05:09:07;52.85;;;23.85;;
53034;SDS011;38923;53.236;6.506;2022-11-15T05:11:52;55.10;;;25.65;;
53034;SDS011;38923;53.236;6.506;2022-11-15T05:14:48;53.22;;;24.42;;
53034;SDS011;38923;53.236;6.506;2022-11-15T05:17:22;58.15;;;26.83;;
53034;SDS011;38923;53.236;6.506;2022-11-15T05:22:53;64.35;;;28.60;;
53034;SDS011;38923;53.236;6.506;2022-11-15T05:25:27;72.57;;;28.45;;
53034;SDS011;38923;53.236;6.506;2022-11-15T05:28:11;65.20;;;28.77;;
53034;SDS011;38923;53.236;6.506;2022-11-15T05:37:09;66.75;;;30.23;;
53034;SDS011;38923;53.236;6.506;2022-11-15T05:39:48;71.97;;;29.75;;
53034;SDS011;38923;53.236;6.506;2022-11-15T05:42:19;74.75;;;29.95;;
53034;SDS011;38923;53.236;6.506;2022-11-15T05:44:47;76.22;;;30.55;;
53034;SDS011;38923;53.236;6.506;2022-11-15T05:47:23;78.78;;;31.20;;
53034;SDS011;38923;53.236;6.506;2022-11-15T05:50:08;82.30;;;31.55;;
53034;SDS011;38923;53.236;6.506;2022-11-15T05:52:41;83.00;;;32.80;;
53034;SDS011;38923;53.236;6.506;2022-11-15T05:55:46;88.47;;;33.28;;
53034;SDS011;38923;53.236;6.506;2022-11-15T05:58:21;88.43;;;33.78;;
53034;SDS011;38923;53.236;6.506;2022-11-15T06:00:53;86.35;;;33.92;;
53034;SDS011;38923;53.236;6.506;2022-11-15T06:03:39;86.72;;;34.88;;
53034;SDS011;38923;53.236;6.506;2022-11-15T06:06:30;90.47;;;34.97;;
53034;SDS011;38923;53.236;6.506;2022-11-15T06:09:09;90.88;;;36.55;;
53034;SDS011;38923;53.236;6.506;2022-11-15T06:11:51;91.90;;;36.33;;
53034;SDS011;38923;53.236;6.506;2022-11-15T06:14:41;85.82;;;34.80;;
53034;SDS011;38923;53.236;6.506;2022-11-15T06:20:26;109.32;;;37.28;;
53034;SDS011;38923;53.236;6.506;2022-11-15T06:26:19;92.00;;;34.80;;
53034;SDS011;38923;53.236;6.506;2022-11-15T06:29:39;99.05;;;37.60;;
53034;SDS011;38923;53.236;6.506;2022-11-15T06:33:10;87.15;;;34.50;;
53034;SDS011;38923;53.236;6.506;2022-11-15T06:36:00;100.82;;;37.28;;
53034;SDS011;38923;53.236;6.506;2022-11-15T06:52:31;100.30;;;39.33;;
53034;SDS011;38923;53.236;6.506;2022-11-15T06:55:00;93.00;;;36.60;;
53034;SDS011;38923;53.236;6.506;2022-11-15T07:00:02;102.57;;;38.70;;
53034;SDS011;38923;53.236;6.506;2022-11-15T07:02:29;91.07;;;36.13;;
53034;SDS011;38923;53.236;6.506;2022-11-15T07:04:55;94.03;;;39.10;;
53034;SDS011;38923;53.236;6.506;2022-11-15T07:07:24;101.60;;;38.63;;
53034;SDS011;38923;53.236;6.506;2022-11-15T07:09:49;98.25;;;39.35;;
53034;SDS011;38923;53.236;6.506;2022-11-15T07:12:18;102.93;;;40.40;;
53034;SDS011;38923;53.236;6.506;2022-11-15T07:14:54;109.05;;;40.80;;
53034;SDS011;38923;53.236;6.506;2022-11-15T07:17:19;102.03;;;40.35;;
53034;SDS011;38923;53.236;6.506;2022-11-15T07:19:45;78.40;;;36.72;;
53034;SDS011;38923;53.236;6.506;2022-11-15T07:22:11;82.22;;;35.50;;
53034;SDS011;38923;53.236;6.506;2022-11-15T07:24:41;71.72;;;30.98;;
53034;SDS011;38923;53.236;6.506;2022-11-15T07:27:07;104.63;;;39.33;;
53034;SDS011;38923;53.236;6.506;2022-11-15T07:29:33;101.50;;;39.42;;
53034;SDS011;38923;53.236;6.506;2022-11-15T07:32:09;99.10;;;39.78;;
53034;SDS011;38923;53.236;6.506;2022-11-15T07:34:57;92.53;;;37.72;;
53034;SDS011;38923;53.236;6.506;2022-11-15T07:37:25;90.30;;;36.78;;
53034;SDS011;38923;53.236;6.506;2022-11-15T07:39:51;79.85;;;34.13;;
53034;SDS011;38923;53.236;6.506;2022-11-15T07:42:17;87.70;;;35.85;;
53034;SDS011;38923;53.236;6.506;2022-11-15T07:45:01;88.82;;;38.85;;
53034;SDS011;38923;53.236;6.506;2022-11-15T07:47:28;80.00;;;35.20;;
53034;SDS011;38923;53.236;6.506;2022-11-15T07:49:54;85.22;;;36.20;;
53034;SDS011;38923;53.236;6.506;2022-11-15T07:52:20;90.45;;;36.78;;
53034;SDS011;38923;53.236;6.506;2022-11-15T07:54:48;79.13;;;34.53;;
53034;SDS011;38923;53.236;6.506;2022-11-15T07:57:14;85.15;;;36.22;;
53034;SDS011;38923;53.236;6.506;2022-11-15T07:59:42;80.72;;;34.90;;
53034;SDS011;38923;53.236;6.506;2022-11-15T08:02:11;81.10;;;34.22;;
53034;SDS011;38923;53.236;6.506;2022-11-15T08:04:38;69.93;;;31.20;;
53034;SDS011;38923;53.236;6.506;2022-11-15T08:07:06;81.65;;;35.15;;
53034;SDS011;38923;53.236;6.506;2022-11-15T08:09:32;82.97;;;35.97;;
53034;SDS011;38923;53.236;6.506;2022-11-15T08:12:04;77.45;;;34.72;;
53034;SDS011;38923;53.236;6.506;2022-11-15T08:14:37;72.22;;;31.90;;
53034;SDS011;38923;53.236;6.506;2022-11-15T08:17:03;75.38;;;33.03;;
53034;SDS011;38923;53.236;6.506;2022-11-15T08:19:32;68.78;;;30.98;;
53034;SDS011;38923;53.236;6.506;2022-11-15T08:21:58;64.75;;;31.40;;
53034;SDS011;38923;53.236;6.506;2022-11-15T08:24:26;63.25;;;30.05;;
53034;SDS011;38923;53.236;6.506;2022-11-15T08:26:52;71.97;;;33.42;;
53034;SDS011;38923;53.236;6.506;2022-11-15T08:29:17;60.05;;;29.33;;
53034;SDS011;38923;53.236;6.506;2022-11-15T08:31:43;65.30;;;31.77;;
53034;SDS011;38923;53.236;6.506;2022-11-15T08:34:12;66.55;;;30.20;;
53034;SDS011;38923;53.236;6.506;2022-11-15T08:36:38;63.95;;;30.17;;
53034;SDS011;38923;53.236;6.506;2022-11-15T08:39:04;63.50;;;30.02;;
53034;SDS011;38923;53.236;6.506;2022-11-15T08:41:31;58.65;;;29.60;;
53034;SDS011;38923;53.236;6.506;2022-11-15T08:43:58;59.22;;;29.65;;
53034;SDS011;38923;53.236;6.506;2022-11-15T08:46:26;63.88;;;30.50;;
53034;SDS011;38923;53.236;6.506;2022-11-15T08:48:52;62.00;;;29.58;;
53034;SDS011;38923;53.236;6.506;2022-11-15T08:51:21;65.45;;;28.80;;
53034;SDS011;38923;53.236;6.506;2022-11-15T08:53:46;56.78;;;27.73;;
53034;SDS011;38923;53.236;6.506;2022-11-15T08:56:13;52.90;;;28.38;;
53034;SDS011;38923;53.236;6.506;2022-11-15T08:58:40;55.25;;;27.23;;
53034;SDS011;38923;53.236;6.506;2022-11-15T09:01:13;53.92;;;27.75;;
53034;SDS011;38923;53.236;6.506;2022-11-15T09:03:41;50.05;;;28.35;;
53034;SDS011;38923;53.236;6.506;2022-11-15T09:06:09;51.67;;;27.10;;
53034;SDS011;38923;53.236;6.506;2022-11-15T09:08:39;56.20;;;29.48;;
53034;SDS011;38923;53.236;6.506;2022-11-15T09:11:07;50.47;;;29.25;;
53034;SDS011;38923;53.236;6.506;2022-11-15T09:13:41;60.38;;;31.63;;
53034;SDS011;38923;53.236;6.506;2022-11-15T09:16:07;54.28;;;28.40;;
53034;SDS011;38923;53.236;6.506;2022-11-15T09:18:32;47.90;;;25.63;;
53034;SDS011;38923;53.236;6.506;2022-11-15T09:21:06;46.80;;;25.70;;
53034;SDS011;38923;53.236;6.506;2022-11-15T09:23:34;56.38;;;26.10;;
53034;SDS011;38923;53.236;6.506;2022-11-15T09:26:11;47.03;;;24.27;;
53034;SDS011;38923;53.236;6.506;2022-11-15T09:28:37;40.78;;;24.17;;
53034;SDS011;38923;53.236;6.506;2022-11-15T09:31:06;41.63;;;23.60;;
53034;SDS011;38923;53.236;6.506;2022-11-15T09:33:33;47.65;;;25.63;;
53034;SDS011;38923;53.236;6.506;2022-11-15T09:36:03;44.22;;;24.13;;
53034;SDS011;38923;53.236;6.506;2022-11-15T09:38:38;42.65;;;23.75;;
53034;SDS011;38923;53.236;6.506;2022-11-15T09:43:56;40.42;;;22.15;;
53034;SDS011;38923;53.236;6.506;2022-11-15T09:49:41;40.47;;;20.92;;
53034;SDS011;38923;53.236;6.506;2022-11-15T09:52:12;33.35;;;21.25;;
53034;SDS011;38923;53.236;6.506;2022-11-15T09:54:43;37.38;;;21.80;;
53034;SDS011;38923;53.236;6.506;2022-11-15T09:57:14;39.83;;;22.60;;
53034;SDS011;38923;53.236;6.506;2022-11-15T10:00:18;36.70;;;20.40;;
53034;SDS011;38923;53.236;6.506;2022-11-15T10:05:26;32.97;;;20.48;;
53034;SDS011;38923;53.236;6.506;2022-11-15T10:08:11;41.30;;;21.00;;
53034;SDS011;38923;53.236;6.506;2022-11-15T10:11:15;37.35;;;20.15;;
53034;SDS011;38923;53.236;6.506;2022-11-15T10:17:26;36.83;;;21.35;;
53034;SDS011;38923;53.236;6.506;2022-11-15T10:22:50;37.67;;;20.25;;
53034;SDS011;38923;53.236;6.506;2022-11-15T10:25:25;34.47;;;20.88;;
53034;SDS011;38923;53.236;6.506;2022-11-15T10:28:16;32.10;;;19.63;;
53034;SDS011;38923;53.236;6.506;2022-11-15T10:34:28;31.00;;;18.38;;
53034;SDS011;38923;53.236;6.506;2022-11-15T11:35:39;29.85;;;16.88;;
53034;SDS011;38923;53.236;6.506;2022-11-15T11:44:32;27.52;;;15.65;;
53034;SDS011;38923;53.236;6.506;2022-11-15T11:47:10;24.50;;;14.32;;
53034;SDS011;38923;53.236;6.506;2022-11-15T11:50:00;28.77;;;17.70;;
53034;SDS011;38923;53.236;6.506;2022-11-15T11:53:02;34.75;;;21.25;;
53034;SDS011;38923;53.236;6.506;2022-11-15T11:55:56;25.05;;;15.15;;
53034;SDS011;38923;53.236;6.506;2022-11-15T11:58:33;25.73;;;20.00;;
53034;SDS011;38923;53.236;6.506;2022-11-15T12:01:23;24.40;;;15.98;;
53034;SDS011;38923;53.236;6.506;2022-11-15T12:04:02;31.80;;;20.75;;
53034;SDS011;38923;53.236;6.506;2022-11-15T12:09:58;21.98;;;14.60;;
53034;SDS011;38923;53.236;6.506;2022-11-15T12:12:57;23.23;;;15.13;;
53034;SDS011;38923;53.236;6.506;2022-11-15T12:15:25;26.73;;;15.35;;
53034;SDS011;38923;53.236;6.506;2022-11-15T12:18:02;19.50;;;7.85;;
53034;SDS011;38923;53.236;6.506;2022-11-15T12:20:32;12.32;;;7.28;;
53034;SDS011;38923;53.236;6.506;2022-11-15T12:23:17;12.07;;;8.02;;
53034;SDS011;38923;53.236;6.506;2022-11-15T12:26:01;11.30;;;7.25;;
53034;SDS011;38923;53.236;6.506;2022-11-15T12:28:39;11.70;;;5.53;;
53034;SDS011;38923;53.236;6.506;2022-11-15T12:34:01;9.30;;;5.18;;
53034;SDS011;38923;53.236;6.506;2022-11-15T12:36:51;9.48;;;4.78;;
53034;SDS011;38923;53.236;6.506;2022-11-15T12:39:18;8.88;;;4.20;;
53034;SDS011;38923;53.236;6.506;2022-11-15T12:42:34;7.13;;;3.72;;
53034;SDS011;38923;53.236;6.506;2022-11-15T12:49:48;5.03;;;2.60;;
53034;SDS011;38923;53.236;6.506;2022-11-15T12:52:17;8.90;;;2.80;;
53034;SDS011;38923;53.236;6.506;2022-11-15T12:54:54;6.13;;;2.83;;
53034;SDS011;38923;53.236;6.506;2022-11-15T13:02:45;8.07;;;2.60;;
53034;SDS011;38923;53.236;6.506;2022-11-15T13:13:43;8.55;;;2.85;;
53034;SDS011;38923;53.236;6.506;2022-11-15T13:34:27;10.15;;;4.63;;
53034;SDS011;38923;53.236;6.506;2022-11-15T13:37:11;12.88;;;4.80;;
53034;SDS011;38923;53.236;6.506;2022-11-15T13:39:48;8.27;;;4.28;;
53034;SDS011;38923;53.236;6.506;2022-11-15T13:49:20;13.75;;;8.13;;
53034;SDS011;38923;53.236;6.506;2022-11-15T13:52:06;10.25;;;7.05;;
53034;SDS011;38923;53.236;6.506;2022-11-15T13:55:03;13.68;;;6.78;;
53034;SDS011;38923;53.236;6.506;2022-11-15T14:03:35;11.88;;;8.63;;
53034;SDS011;38923;53.236;6.506;2022-11-15T14:09:43;8.40;;;4.43;;
53034;SDS011;38923;53.236;6.506;2022-11-15T14:12:34;8.25;;;3.83;;
53034;SDS011;38923;53.236;6.506;2022-11-15T14:18:06;11.65;;;7.25;;
53034;SDS011;38923;53.236;6.506;2022-11-15T14:21:20;7.28;;;3.40;;
53034;SDS011;38923;53.236;6.506;2022-11-15T14:23:48;7.38;;;3.33;;
53034;SDS011;38923;53.236;6.506;2022-11-15T14:26:27;7.07;;;2.95;;
53034;SDS011;38923;53.236;6.506;2022-11-15T14:36:25;8.88;;;4.03;;
53034;SDS011;38923;53.236;6.506;2022-11-15T14:39:19;7.82;;;3.28;;
53034;SDS011;38923;53.236;6.506;2022-11-15T14:45:55;10.25;;;4.43;;
53034;SDS011;38923;53.236;6.506;2022-11-15T14:51:50;10.55;;;4.80;;
53034;SDS011;38923;53.236;6.506;2022-11-15T14:54:34;10.88;;;8.13;;
53034;SDS011;38923;53.236;6.506;2022-11-15T15:00:38;8.18;;;3.08;;
53034;SDS011;38923;53.236;6.506;2022-11-15T15:03:15;7.90;;;3.78;;
53034;SDS011;38923;53.236;6.506;2022-11-15T15:06:29;9.00;;;5.28;;
53034;SDS011;38923;53.236;6.506;2022-11-15T15:09:09;8.27;;;3.20;;
53034;SDS011;38923;53.236;6.506;2022-11-15T15:12:54;7.07;;;3.65;;
53034;SDS011;38923;53.236;6.506;2022-11-15T15:15:32;9.13;;;5.15;;
53034;SDS011;38923;53.236;6.506;2022-11-15T15:18:10;8.63;;;5.22;;
53034;SDS011;38923;53.236;6.506;2022-11-15T15:20:53;11.23;;;6.40;;
53034;SDS011;38923;53.236;6.506;2022-11-15T15:24:14;9.80;;;4.65;;
53034;SDS011;38923;53.236;6.506;2022-11-15T15:26:42;8.38;;;3.35;;
53034;SDS011;38923;53.236;6.506;2022-11-15T15:29:41;9.50;;;4.85;;
53034;SDS011;38923;53.236;6.506;2022-11-15T15:32:26;7.20;;;3.78;;
53034;SDS011;38923;53.236;6.506;2022-11-15T15:35:12;8.00;;;4.30;;
53034;SDS011;38923;53.236;6.506;2022-11-15T15:37:55;9.05;;;5.18;;
53034;SDS011;38923;53.236;6.506;2022-11-15T15:40:38;15.80;;;8.80;;
53034;SDS011;38923;53.236;6.506;2022-11-15T15:43:36;14.02;;;8.85;;
53034;SDS011;38923;53.236;6.506;2022-11-15T15:46:16;12.27;;;6.93;;
53034;SDS011;38923;53.236;6.506;2022-11-15T15:48:59;9.98;;;5.88;;
53034;SDS011;38923;53.236;6.506;2022-11-15T15:54:35;10.80;;;7.00;;
53034;SDS011;38923;53.236;6.506;2022-11-15T15:57:13;11.05;;;6.70;;
53034;SDS011;38923;53.236;6.506;2022-11-15T16:00:08;10.43;;;6.40;;
53034;SDS011;38923;53.236;6.506;2022-11-15T16:05:38;7.97;;;4.75;;
53034;SDS011;38923;53.236;6.506;2022-11-15T16:09:02;8.73;;;4.80;;
53034;SDS011;38923;53.236;6.506;2022-11-15T16:15:39;14.85;;;7.65;;
53034;SDS011;38923;53.236;6.506;2022-11-15T16:21:36;17.88;;;9.15;;
53034;SDS011;38923;53.236;6.506;2022-11-15T16:27:09;11.45;;;7.28;;
53034;SDS011;38923;53.236;6.506;2022-11-15T16:30:07;16.00;;;8.88;;
53034;SDS011;38923;53.236;6.506;2022-11-15T16:32:53;11.73;;;7.80;;
53034;SDS011;38923;53.236;6.506;2022-11-15T16:35:54;12.63;;;6.45;;
53034;SDS011;38923;53.236;6.506;2022-11-15T16:38:51;13.13;;;6.78;;
53034;SDS011;38923;53.236;6.506;2022-11-15T16:41:18;41.05;;;21.92;;
53034;SDS011;38923;53.236;6.506;2022-11-15T16:43:44;51.10;;;29.73;;
53034;SDS011;38923;53.236;6.506;2022-11-15T16:46:18;33.47;;;19.00;;
53034;SDS011;38923;53.236;6.506;2022-11-15T16:48:46;20.02;;;13.07;;
53034;SDS011;38923;53.236;6.506;2022-11-15T16:51:13;17.33;;;9.77;;
53034;SDS011;38923;53.236;6.506;2022-11-15T16:53:39;12.57;;;8.52;;
53034;SDS011;38923;53.236;6.506;2022-11-15T16:56:25;10.68;;;7.35;;
53034;SDS011;38923;53.236;6.506;2022-11-15T16:58:53;12.38;;;8.27;;
53034;SDS011;38923;53.236;6.506;2022-11-15T17:01:26;14.43;;;8.68;;
53034;SDS011;38923;53.236;6.506;2022-11-15T17:03:58;14.90;;;8.57;;
53034;SDS011;38923;53.236;6.506;2022-11-15T17:06:36;17.45;;;12.00;;
53034;SDS011;38923;53.236;6.506;2022-11-15T17:09:10;7.65;;;5.35;;
53034;SDS011;38923;53.236;6.506;2022-11-15T17:11:42;6.15;;;4.22;;
53034;SDS011;38923;53.236;6.506;2022-11-15T17:14:08;15.88;;;7.93;;
53034;SDS011;38923;53.236;6.506;2022-11-15T17:16:35;9.68;;;5.78;;
53034;SDS011;38923;53.236;6.506;2022-11-15T17:19:02;11.50;;;4.72;;
53034;SDS011;38923;53.236;6.506;2022-11-15T17:21:29;8.43;;;4.65;;
53034;SDS011;38923;53.236;6.506;2022-11-15T17:23:54;10.27;;;6.18;;
53034;SDS011;38923;53.236;6.506;2022-11-15T17:26:25;20.10;;;11.57;;
53034;SDS011;38923;53.236;6.506;2022-11-15T17:28:54;76.72;;;44.40;;
53034;SDS011;38923;53.236;6.506;2022-11-15T17:31:24;34.83;;;20.67;;
53034;SDS011;38923;53.236;6.506;2022-11-15T17:33:51;31.30;;;18.55;;
53034;SDS011;38923;53.236;6.506;2022-11-15T17:36:17;14.35;;;9.27;;
53034;SDS011;38923;53.236;6.506;2022-11-15T17:38:43;12.30;;;8.35;;
53034;SDS011;38923;53.236;6.506;2022-11-15T17:41:14;7.45;;;5.30;;
53034;SDS011;38923;53.236;6.506;2022-11-15T17:43:45;5.65;;;4.20;;
53034;SDS011;38923;53.236;6.506;2022-11-15T17:46:20;6.35;;;3.60;;
53034;SDS011;38923;53.236;6.506;2022-11-15T17:48:47;10.07;;;5.68;;
53034;SDS011;38923;53.236;6.506;2022-11-15T17:51:33;8.23;;;3.92;;
53034;SDS011;38923;53.236;6.506;2022-11-15T17:53:59;6.20;;;3.85;;
53034;SDS011;38923;53.236;6.506;2022-11-15T17:56:26;4.30;;;3.40;;
53034;SDS011;38923;53.236;6.506;2022-11-15T18:04:46;6.63;;;3.50;;
53034;SDS011;38923;53.236;6.506;2022-11-15T18:07:12;5.70;;;3.80;;
53034;SDS011;38923;53.236;6.506;2022-11-15T18:09:39;4.80;;;3.20;;
53034;SDS011;38923;53.236;6.506;2022-11-15T18:18:13;7.00;;;2.83;;
53034;SDS011;38923;53.236;6.506;2022-11-15T18:20:41;7.15;;;3.00;;
53034;SDS011;38923;53.236;6.506;2022-11-15T18:23:10;7.97;;;4.03;;
53034;SDS011;38923;53.236;6.506;2022-11-15T18:25:36;6.10;;;3.00;;
53034;SDS011;38923;53.236;6.506;2022-11-15T18:28:02;7.85;;;3.20;;
53034;SDS011;38923;53.236;6.506;2022-11-15T18:30:28;4.50;;;3.10;;
53034;SDS011;38923;53.236;6.506;2022-11-15T18:32:54;7.03;;;3.10;;
53034;SDS011;38923;53.236;6.506;2022-11-15T18:35:20;6.60;;;3.55;;
53034;SDS011;38923;53.236;6.506;2022-11-15T18:37:45;5.55;;;3.50;;
53034;SDS011;38923;53.236;6.506;2022-11-15T18:43:55;7.22;;;4.10;;
53034;SDS011;38923;53.236;6.506;2022-11-15T18:46:29;9.25;;;3.90;;
53034;SDS011;38923;53.236;6.506;2022-11-15T18:48:56;7.35;;;2.50;;
53034;SDS011;38923;53.236;6.506;2022-11-15T18:51:24;4.35;;;2.58;;
53034;SDS011;38923;53.236;6.506;2022-11-15T18:53:52;6.07;;;2.78;;
53034;SDS011;38923;53.236;6.506;2022-11-15T18:56:22;4.72;;;2.78;;
53034;SDS011;38923;53.236;6.506;2022-11-15T19:05:12;39.90;;;20.13;;
53034;SDS011;38923;53.236;6.506;2022-11-15T19:14:20;61.22;;;36.08;;
53034;SDS011;38923;53.236;6.506;2022-11-15T19:26:56;13.82;;;8.18;;
53034;SDS011;38923;53.236;6.506;2022-11-15T19:29:50;9.65;;;5.38;;
53034;SDS011;38923;53.236;6.506;2022-11-15T19:33:00;10.30;;;7.13;;
53034;SDS011;38923;53.236;6.506;2022-11-15T19:35:51;9.18;;;5.97;;
53034;SDS011;38923;53.236;6.506;2022-11-15T19:38:31;9.60;;;7.03;;
53034;SDS011;38923;53.236;6.506;2022-11-15T19:41:05;23.00;;;10.55;;
53034;SDS011;38923;53.236;6.506;2022-11-15T19:43:46;40.72;;;21.13;;
53034;SDS011;38923;53.236;6.506;2022-11-15T19:46:12;38.50;;;22.83;;
53034;SDS011;38923;53.236;6.506;2022-11-15T19:54:12;31.55;;;21.13;;
53034;SDS011;38923;53.236;6.506;2022-11-15T19:56:51;11.15;;;6.53;;
53034;SDS011;38923;53.236;6.506;2022-11-15T19:59:28;11.35;;;6.57;;
53034;SDS011;38923;53.236;6.506;2022-11-15T20:08:23;8.25;;;4.47;;
53034;SDS011;38923;53.236;6.506;2022-11-15T20:10:52;7.90;;;4.30;;
53034;SDS011;38923;53.236;6.506;2022-11-15T20:20:08;6.18;;;3.33;;
53034;SDS011;38923;53.236;6.506;2022-11-15T20:23:08;7.43;;;3.45;;
53034;SDS011;38923;53.236;6.506;2022-11-15T20:25:37;5.38;;;3.22;;
53034;SDS011;38923;53.236;6.506;2022-11-15T20:28:28;6.38;;;3.20;;
53034;SDS011;38923;53.236;6.506;2022-11-15T20:31:25;6.03;;;3.30;;
53034;SDS011;38923;53.236;6.506;2022-11-15T20:37:16;7.18;;;3.50;;
53034;SDS011;38923;53.236;6.506;2022-11-15T20:39:44;5.38;;;3.10;;
53034;SDS011;38923;53.236;6.506;2022-11-15T20:42:19;4.55;;;3.40;;
53034;SDS011;38923;53.236;6.506;2022-11-15T20:45:06;5.80;;;3.25;;
53034;SDS011;38923;53.236;6.506;2022-11-15T20:52:55;5.70;;;3.33;;
53034;SDS011;38923;53.236;6.506;2022-11-15T20:55:26;7.55;;;3.70;;
53034;SDS011;38923;53.236;6.506;2022-11-15T20:57:57;4.47;;;3.45;;
53034;SDS011;38923;53.236;6.506;2022-11-15T21:00:26;7.10;;;3.97;;
53034;SDS011;38923;53.236;6.506;2022-11-15T21:02:54;9.00;;;6.00;;
53034;SDS011;38923;53.236;6.506;2022-11-15T21:05:22;5.95;;;3.40;;
53034;SDS011;38923;53.236;6.506;2022-11-15T21:08:03;8.57;;;3.88;;